Temp     Hi    Low   Out    Dew  Wind  Wind   Wind    Hi    Hi   Wind   Heat    THW   THSW                Rain  Solar   Solar Hi Solar   UV    UV    Hi     Heat    Cool    In     In    In     In           Wind  Wind    ISS   Arc.
  Date    Time     Out   Temp   Temp   Hum    Pt. Speed   Dir    Run Speed   Dir  Chill  Index  Index  Index   Bar    Rain  Rate   Rad.  Energy    Rad.  Index  Dose   UV     D-D     D-D    Temp   Hum    Dew   Heat     ET   Samp   Tx   Recept  Int.
---------------------------------------------------------------------------------------------------------------------------------------------------------------------------------------------------------------------------------------------------------
 7/20/17 12:30a   72.8   73.2   72.6    35   43.5   3.0     W   1.50  13.0     W   72.8   70.9   70.9   66.4  30.129  0.00  0.00     0     0.00      0     0.0  0.00   0.0   0.000   0.163   79.3    27   42.4   77.1   0.000   674    2    100.0   30 
 7/20/17  1:00a   71.7   72.8   71.7    38   44.7   2.0     W   1.00   9.0     W   71.7   69.5   69.5   65.1  30.120  0.00  0.00     0     0.00      0     0.0  0.00   0.0   0.000   0.140   79.5    27   42.6   77.3   0.004   675    2    100.0   30 
 7/20/17  1:30a   70.0   71.7   69.9    40   44.6   2.0   WSW   1.00  10.0     W   70.0   67.3   67.3   62.9  30.116  0.00  0.00     0     0.00      0     0.0  0.00   0.0   0.000   0.104   79.7    28   43.7   77.6   0.000   684    2    100.0   30 
 7/20/17  2:00a   69.0   70.3   69.0    43   45.6   0.0   WSW   0.00   1.0   WSW   69.0   66.9   66.9   62.5  30.116  0.00  0.00     0     0.00      0     0.0  0.00   0.0   0.000   0.083   79.7    28   43.7   77.6   0.003   674    2    100.0   30 
 7/20/17  2:30a   67.2   69.0   67.2    46   45.7   0.0   WSW   0.00   4.0   WSW   67.2   65.4   65.4   61.0  30.115  0.00  0.00     0     0.00      0     0.0  0.00   0.0   0.000   0.046   78.6    28   42.8   76.7   0.000   678    2    100.0   30 
 7/20/17  3:00a   68.1   68.1   66.8    44   45.4   0.0   WSW   0.00   8.0   WSW   68.1   66.2   66.2   61.8  30.112  0.00  0.00     0     0.00      0     0.0  0.00   0.0   0.000   0.065   78.6    29   43.7   76.8   0.002   685    2    100.0   30 
 7/20/17  3:30a   67.4   68.1   67.2    44   44.7   3.0   WSW   1.50   9.0   WSW   67.4   65.4   65.4   61.0  30.110  0.00  0.00     0     0.00      0     0.0  0.00   0.0   0.000   0.050   78.6    29   43.7   76.8   0.000   669    2    100.0   30 
 7/20/17  4:00a   66.7   67.6   66.7    45   44.7   2.0   WSW   1.00   7.0   WSW   66.7   64.7   64.7   60.3  30.108  0.00  0.00     0     0.00      0     0.0  0.00   0.0   0.000   0.035   78.4    30   44.4   76.7   0.003   684    2    100.0   30 
 7/20/17  4:30a   66.2   66.8   66.2    47   45.4   3.0   WSW   1.50   8.0   WSW   66.2   64.3   64.3   59.9  30.110  0.00  0.00     0     0.00      0     0.0  0.00   0.0   0.000   0.025   78.4    30   44.4   76.7   0.000   683    2    100.0   30 
 7/20/17  5:00a   63.7   66.3   63.7    49   44.2   1.0   WSW   0.50   6.0   WSW   63.7   61.8   61.8   57.4  30.117  0.00  0.00     0     0.00      0     0.0  0.00   0.0   0.027   0.000   78.2    30   44.2   76.6   0.003   669    2    100.0   30 
 7/20/17  5:30a   65.0   65.0   63.4    47   44.3   2.0   WSW   1.00   9.0   WSW   65.0   63.0   63.0   58.6  30.120  0.00  0.00     0     0.00      0     0.0  0.00   0.0   0.000   0.000   78.0    30   44.0   76.4   0.000   684    2    100.0   30 
 7/20/17  6:00a   62.0   65.0   62.0    57   46.6   0.0   WSW   0.00   3.0   WSW   62.0   60.6   60.6   56.3  30.128  0.00  0.00     0     0.00      0     0.0  0.00   0.0   0.063   0.000   77.9    30   44.0   76.3   0.001   681    2    100.0   30 
 7/20/17  6:30a   60.2   62.0   60.2    60   46.3   0.0   ---   0.00   0.0   ---   60.2   58.9   58.9   54.7  30.136  0.00  0.00     9     0.39     16     0.0  0.00   0.0   0.100   0.000   77.9    31   44.8   76.4   0.000   677    2    100.0   30 
 7/20/17  7:00a   60.3   60.7   59.8    60   46.4   0.0   ---   0.00   0.0   ---   60.3   59.0   59.0   57.1  30.138  0.00  0.00    19     0.82     23     0.0  0.00   0.0   0.098   0.000   77.7    32   45.5   76.3   0.001   683    2    100.0   30 
 7/20/17  7:30a   63.7   63.7   60.2    57   48.2   0.0   ---   0.00   0.0   ---   63.7   62.5   62.5   61.1  30.141  0.00  0.00    32     1.38    102     0.0  0.00   0.0   0.027   0.000   77.7    32   45.5   76.3   0.000   673    2    100.0   30 
 7/20/17  8:00a   68.3   68.3   63.7    45   46.1   0.0   WSW   0.00   5.0   WSW   68.3   66.5   66.5   72.0  30.144  0.00  0.00   249    10.71    309     0.1  0.02   0.6   0.000   0.069   77.7    32   45.5   76.3   0.003   678    2    100.0   30 
 7/20/17  8:30a   71.5   71.5   68.4    38   44.5   0.0   WSW   0.00   5.0   WSW   71.5   69.2   69.2   76.3  30.147  0.00  0.00   348    14.97    387     1.0  0.16   1.3   0.000   0.135   77.9    31   44.8   76.4   0.000   684    2    100.0   30 
 7/20/17  9:00a   73.1   73.2   71.5    34   43.1   2.0   WNW   1.00  13.0   NNW   73.1   71.3   71.3   79.2  30.145  0.00  0.00   435    18.71    482     1.8  0.29   2.3   0.000   0.169   78.0    30   44.0   76.4   0.010   671    2    100.0   30 
 7/20/17  9:30a   74.5   74.5   73.0    29   40.1   5.0   NNW   2.50  12.0   NNW   74.5   72.7   72.7   81.3  30.150  0.00  0.00   527    22.66    577     2.8  0.45   3.4   0.000   0.198   78.0    28   42.2   76.3   0.000   683    2    100.0   30 
 7/20/17 10:00a   75.2   75.2   74.4    29   40.7   6.0   NNW   3.00  13.0   NNW   75.2   73.5   73.5   82.7  30.155  0.00  0.00   623    26.79    668     4.1  0.66   4.8   0.000   0.212   78.2    27   41.5   76.4   0.018   681    2    100.0   30 
 7/20/17 10:30a   77.3   77.3   75.1    28   41.6   6.0   NNW   3.00  15.0   NNW   77.3   75.9   75.9   85.5  30.156  0.00  0.00   714    30.71    747     5.5  0.88   6.1   0.000   0.256   78.8    27   42.0   76.8   0.000   673    2    100.0   30 
 7/20/17 11:00a   77.9   78.1   77.2    31   44.8   6.0   NNW   3.00  14.0   NNW   77.9   76.4   76.4   86.3  30.153  0.00  0.00   774    33.29    803     6.7  1.08   7.3   0.000   0.269   79.3    28   43.4   77.2   0.023   682    2    100.0   30 
 7/20/17 11:30a   78.9   79.1   77.9    28   43.0   9.0   NNW   4.50  16.0   NNW   77.8   76.9   75.8   84.8  30.150  0.00  0.00   831    35.74    854     7.9  1.27   8.5   0.000   0.290   80.1    28   44.0   77.9   0.000   677    2    100.0   30 
 7/20/17 12:00p   78.8   80.5   78.5    29   43.8   9.0   NNW   4.50  17.0   NNW   77.7   77.0   75.9   84.9  30.146  0.00  0.00   874    37.59    893     8.9  1.43   9.3   0.000   0.288   80.6    28   44.5   78.4   0.028   679    2    100.0   30 
 7/20/17 12:30p   79.6   80.4   78.5    27   42.7  10.0   NNW   5.00  19.0   NNW   78.0   77.4   75.8   84.4  30.146  0.00  0.00   907    39.01    921     9.7  1.56  10.0   0.000   0.304   81.2    27   44.0   78.9   0.000   681    2    100.0   30 
 7/20/17  1:00p   80.7   81.0   79.3    25   41.6  11.0   NNW   5.50  19.0   NNW   78.9   78.1   76.3   84.4  30.140  0.00  0.00   927    39.87    933    10.1  1.62  10.1   0.000   0.327   81.6    26   43.4   79.2   0.031   671    2    100.0   30 
 7/20/17  1:30p   81.5   81.8   79.8    26   43.3  11.0   NNW   5.50  21.0     N   79.8   79.1   77.4   85.5  30.141  0.00  0.00   924    39.74    942     9.9  1.59  10.1   0.000   0.344   81.4    26   43.2   79.0   0.000   686    2    100.0   30 
 7/20/17  2:00p   80.6   81.5   79.9    27   43.5  12.0   NNW   6.00  20.0     N   78.5   78.3   76.2   83.9  30.142  0.00  0.00   913    39.26    926     9.5  1.53   9.8   0.000   0.325   82.0    26   43.7   79.6   0.032   680    2    100.0   30 
 7/20/17  2:30p   81.9   82.0   80.4    26   43.6  11.0   NNW   5.50  20.0   NNW   80.2   79.5   77.8   85.4  30.138  0.00  0.00   897    38.58    905     8.8  1.41   9.1   0.000   0.352   82.3    26   44.0   79.9   0.000   675    2    100.0   30 
 7/20/17  3:00p   81.6   82.0   81.0    25   42.4  12.0   NNW   6.00  24.0   NNW   79.6   79.1   77.1   84.1  30.133  0.00  0.00   896    38.53    984     7.5  1.21   8.5   0.000   0.346   82.9    25   43.5   80.3   0.031   684    2    100.0   30 
 7/20/17  3:30p   82.2   82.3   81.2    25   42.9  12.0   NNW   6.00  25.0   NNW   80.3   79.7   77.8   84.8  30.125  0.00  0.00   797    34.28    947     6.5  1.04   7.5   0.000   0.358   83.1    25   43.6   80.5   0.000   676    2    100.0   30 
 7/20/17  4:00p   82.6   82.8   81.3    23   41.0  11.0   NNW   5.50  23.0   NNW   81.0   79.8   78.2   85.4  30.114  0.00  0.00   736    31.65    777     5.3  0.85   5.9   0.000   0.367   83.3    24   42.7   80.6   0.029   681    2    100.0   30 
 7/20/17  4:30p   82.7   83.1   82.0    23   41.1  11.0    NW   5.50  21.0   NNW   81.1   79.9   78.3   85.6  30.106  0.00  0.00   654    28.13    694     4.0  0.64   4.6   0.000   0.369   83.5    24   42.9   80.9   0.000   682    2    100.0   30 
 7/20/17  5:00p   82.5   83.8   82.3    22   39.8   8.0    NW   4.00  16.0   WNW   82.2   79.7   79.4   87.6  30.098  0.00  0.00   575    24.73    612     2.8  0.45   3.4   0.000   0.365   83.5    23   41.8   80.8   0.024   672    2    100.0   30 
 7/20/17  5:30p   82.2   83.5   82.0    22   39.6   8.0    NW   4.00  18.0     N   81.9   79.3   79.0   87.2  30.093  0.00  0.00   484    20.81    529     1.8  0.29   2.3   0.000   0.358   83.7    22   40.8   80.9   0.000   684    2    100.0   30 
 7/20/17  6:00p   82.2   82.2   81.2    23   40.7   9.0   NNW   4.50  18.0   NNW   81.3   79.5   78.6   86.0  30.102  0.00  0.00   391    16.82    439     1.0  0.16   1.4   0.000   0.358   83.7    22   40.8   80.9   0.018   683    2    100.0   30 
 7/20/17  6:30p   81.4   82.7   81.3    22   38.9   5.0   WNW   2.50  16.0     N   81.4   78.5   78.5   85.3  30.105  0.00  0.00   296    12.73    346     0.2  0.03   0.7   0.000   0.342   83.5    22   40.6   80.7   0.000   674    2    100.0   30 
 7/20/17  7:00p   80.6   81.8   80.6    23   39.4   6.0   WNW   3.00  18.0   WNW   80.6   77.8   77.8   81.7  30.110  0.00  0.00   194     8.34    244     0.0  0.00   0.0   0.000   0.325   83.5    22   40.6   80.7   0.011   683    2    100.0   30 
 7/20/17  7:30p   77.9   80.6   77.9    25   39.2   3.0     W   1.50  14.0     W   77.9   76.1   76.1   73.1  30.115  0.00  0.00    79     3.40    139     0.0  0.00   0.0   0.000   0.269   83.5    23   41.8   80.8   0.000   676    2    100.0   30 
 7/20/17  8:00p   75.4   77.9   75.4    27   39.1   3.0     W   1.50   9.0     W   75.4   73.6   73.6   69.2  30.119  0.00  0.00    10     0.43     14     0.0  0.00   0.0   0.000   0.217   83.1    23   41.5   80.3   0.004   678    2    100.0   30 
 7/20/17  8:30p   74.4   75.4   74.4    30   40.9   6.0     W   3.00  16.0     W   74.4   72.7   72.7   68.1  30.123  0.00  0.00     0     0.00      5     0.0  0.00   0.0   0.000   0.196   82.7    24   42.2   80.0   0.000   684    2    100.0   30 
 7/20/17  9:00p   73.0   74.4   72.9    31   40.6   4.0   WNW   2.00  12.0   WNW   73.0   70.8   70.8   66.2  30.131  0.00  0.00     0     0.00      0     0.0  0.00   0.0   0.000   0.167   82.3    24   41.9   79.7   0.004   672    2    100.0   30 
 7/20/17  9:30p   73.1   73.1   72.2    29   38.9   3.0   WNW   1.50   9.0     W   73.1   70.8   70.8   66.1  30.134  0.00  0.00     0     0.00      0     0.0  0.00   0.0   0.000   0.169   81.8    23   40.4   79.0   0.000   680    2    100.0   30 
 7/20/17 10:00p   73.0   73.5   73.0    27   37.0   2.0    NW   1.00   9.0    NW   73.0   70.4   70.4   65.7  30.138  0.00  0.00     0     0.00      0     0.0  0.00   0.0   0.000   0.167   81.6    22   39.1   78.7   0.004   685    2    100.0   30 
 7/20/17 10:30p   72.4   73.0   72.4    26   35.6   1.0   WNW   0.50   9.0   WNW   72.4   69.3   69.3   64.5  30.138  0.00  0.00     0     0.00      0     0.0  0.00   0.0   0.000   0.154   81.4    22   38.9   78.5   0.000   672    2    100.0   30 
 7/20/17 11:00p   71.3   72.5   71.2    27   35.6   0.0   WNW   0.00   4.0   WNW   71.3   67.9   67.9   63.1  30.133  0.00  0.00     0     0.00      0     0.0  0.00   0.0   0.000   0.131   81.4    22   38.9   78.5   0.003   685    2    100.0   30 
 7/20/17 11:30p   70.8   71.3   70.2    29   37.0   2.0   WNW   1.00   9.0   WNW   70.8   67.4   67.4   62.6  30.130  0.00  0.00     0     0.00      0     0.0  0.00   0.0   0.000   0.121   80.8    22   38.4   77.9   0.000   677    2    100.0   30 
 7/21/17 12:00a   69.7   71.0   69.3    28   35.1   1.0   WNW   0.50   7.0   WNW   69.7   65.9   65.9   61.1  30.130  0.00  0.00     0     0.00      0     0.0  0.00   0.0   0.000   0.098   79.3    23   38.3   76.7   0.004   677    2    100.0   30 
 7/21/17 12:30a   71.5   71.5   69.7    30   38.4   4.0     W   2.00  13.0     W   71.5   68.4   68.4   63.7  30.125  0.00  0.00     0     0.00      0     0.0  0.00   0.0   0.000   0.135   79.2    24   39.3   76.7   0.000   685    2    100.0   30 
 7/21/17  1:00a   70.5   71.5   70.4    30   37.6   3.0     W   1.50  11.0     W   70.5   67.1   67.1   62.4  30.124  0.00  0.00     0     0.00      0     0.0  0.00   0.0   0.000   0.115   79.2    24   39.3   76.7   0.004   676    2    100.0   30 
 7/21/17  1:30a   69.0   70.7   69.0    30   36.3   1.0     W   0.50   7.0     W   69.0   65.4   65.4   60.6  30.123  0.00  0.00     0     0.00      0     0.0  0.00   0.0   0.000   0.083   79.2    25   40.3   76.9   0.000   680    2    100.0   30 
 7/21/17  2:00a   68.1   69.0   67.8    32   37.1   0.0     W   0.00   4.0     W   68.1   64.7   64.7   60.0  30.120  0.00  0.00     0     0.00      0     0.0  0.00   0.0   0.000   0.065   79.0    25   40.2   76.7   0.003   684    2    100.0   30 
 7/21/17  2:30a   66.7   68.2   66.7    35   38.2   0.0     W   0.00   5.0     W   66.7   63.6   63.6   58.9  30.116  0.00  0.00     0     0.00      0     0.0  0.00   0.0   0.000   0.035   79.0    25   40.2   76.7   0.000   670    2    100.0   30 
 7/21/17  3:00a   65.6   66.7   65.4    38   39.3   0.0     W   0.00   3.0     W   65.6   62.8   62.8   58.1  30.113  0.00  0.00     0     0.00      0     0.0  0.00   0.0   0.000   0.012   78.8    25   40.0   76.6   0.002   682    2    100.0   30